Time;durP1;ratioP1;P1;durP2;ratioP2;P2;SDS_P1;SDS_P2;PMS_P1;PMS_P2;Temp;Humidity;BMP_temperature;BMP_pressure;BME280_temperature;BME280_humidity;BME280_pressure;Samples;Min_cycle;Max_cycle;Signal;HPM_P1;HPM_P2
2022/03/11 00:02:03;;;;;;;30.70;10.90;;;6.00;86.90;;;;;;4995467;28;20183;-73
2022/03/11 00:04:29;;;;;;;31.30;12.07;;;6.00;86.90;;;;;;4996149;28;20049;-72
2022/03/11 00:07:14;;;;;;;33.80;12.38;;;5.90;87.00;;;;;;5013243;28;20092;-73
2022/03/11 00:09:39;;;;;;;31.47;12.50;;;5.90;87.50;;;;;;5012091;28;20144;-72
2022/03/11 00:12:07;;;;;;;38.42;12.68;;;5.70;87.90;;;;;;4995155;28;20155;-73
2022/03/11 00:14:34;;;;;;;33.80;12.57;;;5.60;89.10;;;;;;4996474;28;20046;-72
2022/03/11 00:17:00;;;;;;;32.03;11.65;;;5.60;90.30;;;;;;5013376;28;20038;-72
2022/03/11 00:19:25;;;;;;;30.25;11.38;;;5.60;90.50;;;;;;5013427;28;20065;-72
2022/03/11 00:21:51;;;;;;;32.05;12.45;;;5.50;91.00;;;;;;5014490;28;20108;-73
2022/03/11 00:24:17;;;;;;;35.67;12.73;;;5.40;91.00;;;;;;4998020;28;20104;-72
2022/03/11 00:26:43;;;;;;;32.58;11.50;;;5.30;91.10;;;;;;5015041;28;20381;-73
2022/03/11 00:29:09;;;;;;;31.88;12.63;;;5.20;91.60;;;;;;5013841;28;20085;-71
2022/03/11 00:31:34;;;;;;;33.08;12.05;;;5.10;91.60;;;;;;5012428;28;20108;-73
2022/03/11 00:34:00;;;;;;;36.20;14.07;;;5.10;92.70;;;;;;5012280;28;20108;-73
2022/03/11 00:36:26;;;;;;;34.47;12.75;;;5.00;93.30;;;;;;5013579;28;20429;-73
2022/03/11 00:38:52;;;;;;;32.25;12.98;;;5.00;94.70;;;;;;5013333;28;20077;-72
2022/03/11 00:41:18;;;;;;;32.67;13.18;;;5.00;94.10;;;;;;4980641;28;20100;-73
2022/03/11 00:43:44;;;;;;;30.77;12.25;;;5.00;94.80;;;;;;5012393;28;20176;-73
2022/03/11 00:46:10;;;;;;;32.95;13.45;;;4.90;94.70;;;;;;4995644;28;20061;-72
2022/03/11 00:48:36;;;;;;;31.00;11.73;;;4.80;94.70;;;;;;5013686;28;20038;-73
2022/03/11 00:51:02;;;;;;;34.95;13.00;;;4.80;95.20;;;;;;5015107;28;20046;-71
2022/03/11 00:53:28;;;;;;;46.72;12.30;;;4.80;95.30;;;;;;4997222;28;20477;-72
2022/03/11 00:55:56;;;;;;;31.20;12.52;;;4.80;96.10;;;;;;5014711;28;20046;-74
2022/03/11 00:58:22;;;;;;;34.08;13.75;;;4.80;96.00;;;;;;5013220;28;20034;-73
2022/03/11 01:00:48;;;;;;;32.58;12.70;;;4.80;96.90;;;;;;5011700;28;20042;-74
2022/03/11 01:03:14;;;;;;;37.42;13.85;;;4.70;97.00;;;;;;5012488;28;20061;-73
2022/03/11 01:05:39;;;;;;;31.02;12.77;;;4.70;97.50;;;;;;5014406;28;20377;-72
2022/03/11 01:08:05;;;;;;;39.78;12.63;;;4.70;97.70;;;;;;4997809;28;20105;-72
2022/03/11 01:10:32;;;;;;;38.47;13.85;;;4.70;99.00;;;;;;4996700;28;20057;-73
2022/03/11 01:12:58;;;;;;;31.52;12.73;;;4.60;98.00;;;;;;5012413;28;20492;-71
2022/03/11 01:15:23;;;;;;;33.83;13.27;;;4.60;98.30;;;;;;4995735;28;20077;-71
2022/03/11 01:17:49;;;;;;;35.08;13.85;;;4.60;99.30;;;;;;5011580;28;20046;-72
2022/03/11 01:20:15;;;;;;;33.38;12.52;;;4.50;99.10;;;;;;5011458;28;20046;-73
2022/03/11 01:22:41;;;;;;;34.60;12.98;;;4.50;99.90;;;;;;5011358;28;20050;-73
2022/03/11 01:25:08;;;;;;;32.88;12.40;;;4.50;99.90;;;;;;4978587;28;20136;-72
2022/03/11 01:27:34;;;;;;;40.05;13.25;;;4.50;99.90;;;;;;5014302;28;20038;-72
2022/03/11 01:29:59;;;;;;;37.10;13.93;;;4.50;99.90;;;;;;4998249;28;20046;-71
2022/03/11 01:32:25;;;;;;;31.02;11.15;;;4.50;99.90;;;;;;5014384;28;20052;-72
2022/03/11 01:34:51;;;;;;;38.13;13.18;;;4.50;99.90;;;;;;4998599;28;20057;-74
2022/03/11 01:37:17;;;;;;;32.33;12.25;;;4.50;99.90;;;;;;5015855;28;20046;-72
2022/03/11 01:39:42;;;;;;;34.20;12.90;;;4.50;99.90;;;;;;5014663;28;20049;-71
2022/03/11 01:42:10;;;;;;;36.63;12.73;;;4.50;99.90;;;;;;4998036;28;20040;-72
2022/03/11 01:44:36;;;;;;;;;;;4.50;99.90;;;;;;4998501;28;20038;-71
2022/03/11 01:47:02;;;;;;;30.92;11.15;;;4.60;99.90;;;;;;5014099;28;19928;-71
2022/03/11 01:49:27;;;;;;;32.95;12.18;;;4.60;99.90;;;;;;4997837;28;20465;-71
2022/03/11 01:51:53;;;;;;;32.67;12.10;;;4.50;99.90;;;;;;5014025;28;20100;-73
2022/03/11 01:54:19;;;;;;;34.53;12.38;;;4.50;99.90;;;;;;4981069;28;20038;-73
2022/03/11 01:56:45;;;;;;;40.15;12.75;;;4.50;99.90;;;;;;4981439;28;20034;-73
2022/03/11 01:59:11;;;;;;;34.55;12.63;;;4.40;99.90;;;;;;5013854;28;20385;-73
2022/03/11 02:01:38;;;;;;;33.65;12.93;;;4.60;99.90;;;;;;5015366;28;20118;-73
2022/03/11 02:04:04;;;;;;;38.72;12.48;;;4.50;99.90;;;;;;5013991;28;20046;-72
2022/03/11 02:06:30;;;;;;;35.28;12.93;;;4.40;99.90;;;;;;4998331;28;20046;-72
2022/03/11 02:08:58;;;;;;;29.85;12.13;;;4.40;99.90;;;;;;5015964;28;20369;-73
2022/03/11 02:11:24;;;;;;;29.20;11.48;;;4.20;99.90;;;;;;5013472;28;20096;-72
2022/03/11 02:13:53;;;;;;;30.58;11.63;;;4.30;99.90;;;;;;5014967;28;20034;-74
2022/03/11 02:16:28;;;;;;;33.45;11.85;;;4.30;99.90;;;;;;5013589;28;20479;-72
2022/03/11 02:18:54;;;;;;;28.90;10.15;;;4.30;99.90;;;;;;5013572;28;20124;-72
2022/03/11 02:21:21;;;;;;;35.42;11.57;;;4.30;99.90;;;;;;5013201;28;20120;-72
2022/03/11 02:23:49;;;;;;;30.08;10.48;;;4.30;99.90;;;;;;5014642;28;20046;-71
2022/03/11 02:26:17;;;;;;;37.58;11.57;;;4.20;99.90;;;;;;5013253;28;20358;-72
2022/03/11 02:28:48;;;;;;;31.17;11.27;;;4.30;99.90;;;;;;5015121;28;20365;-72
2022/03/11 02:31:14;;;;;;;35.78;12.15;;;4.30;99.90;;;;;;5014757;28;20045;-72
2022/03/11 02:33:40;;;;;;;36.50;11.30;;;4.30;99.90;;;;;;4996610;28;20054;-72
2022/03/11 02:36:07;;;;;;;39.67;12.25;;;4.20;99.90;;;;;;5014186;28;20288;-71
2022/03/11 02:38:33;;;;;;;35.97;12.57;;;4.20;99.90;;;;;;5012940;28;20123;-72
2022/03/11 02:40:59;;;;;;;32.50;11.85;;;4.20;99.90;;;;;;5012667;28;20108;-72
2022/03/11 02:43:25;;;;;;;33.97;11.10;;;4.20;99.90;;;;;;5012858;28;20045;-71
2022/03/11 02:45:51;;;;;;;36.30;13.82;;;4.20;99.90;;;;;;5013398;28;20407;-72
2022/03/11 02:48:17;;;;;;;36.65;12.23;;;4.20;99.90;;;;;;4996657;28;20046;-72
2022/03/11 02:50:43;;;;;;;40.90;13.73;;;4.10;99.90;;;;;;5014585;28;20046;-72
2022/03/11 02:53:10;;;;;;;31.75;12.70;;;4.20;99.90;;;;;;5013174;28;20350;-73
2022/03/11 02:55:35;;;;;;;29.05;8.93;;;4.20;99.90;;;;;;5014703;28;20401;-72
2022/03/11 02:58:01;;;;;;;40.10;13.43;;;4.20;99.90;;;;;;5012500;28;20100;-72
2022/03/11 03:00:27;;;;;;;39.17;13.15;;;4.20;99.90;;;;;;5013193;28;20050;-71
2022/03/11 03:02:53;;;;;;;36.05;13.20;;;4.20;99.90;;;;;;5014095;28;20042;-71
2022/03/11 03:05:18;;;;;;;41.53;13.73;;;4.20;99.90;;;;;;5013442;28;20044;-71
2022/03/11 03:07:44;;;;;;;36.45;12.00;;;4.10;99.90;;;;;;4996331;28;20045;-72
2022/03/11 03:10:11;;;;;;;38.30;12.82;;;4.30;99.90;;;;;;5013749;28;20093;-72
2022/03/11 03:12:38;;;;;;;36.63;11.53;;;4.20;99.90;;;;;;5014040;28;20056;-72
2022/03/11 03:15:05;;;;;;;38.08;15.20;;;4.20;99.90;;;;;;5012359;28;20773;-77
2022/03/11 03:17:31;;;;;;;35.25;11.50;;;4.20;99.90;;;;;;5012067;28;20433;-72
2022/03/11 03:19:56;;;;;;;41.63;14.02;;;4.20;99.90;;;;;;4996208;28;20069;-72
2022/03/11 03:22:23;;;;;;;39.08;13.63;;;4.10;99.90;;;;;;5013377;28;20049;-73
2022/03/11 03:24:49;;;;;;;38.75;13.77;;;4.10;99.90;;;;;;5012120;28;20045;-73
2022/03/11 03:27:16;;;;;;;38.65;13.20;;;4.00;99.90;;;;;;4995592;28;20038;-72
2022/03/11 03:29:42;;;;;;;45.28;14.70;;;4.00;99.90;;;;;;5011987;28;20081;-72
2022/03/11 03:32:08;;;;;;;44.78;15.52;;;3.90;99.90;;;;;;5012989;28;20128;-73
2022/03/11 03:34:36;;;;;;;42.95;14.77;;;3.90;99.90;;;;;;5011895;28;20053;-73
2022/03/11 03:37:05;;;;;;;41.05;14.40;;;3.90;99.90;;;;;;5011368;28;20430;-72
2022/03/11 03:39:31;;;;;;;45.03;15.23;;;3.90;99.90;;;;;;5013130;28;20034;-72
2022/03/11 03:41:58;;;;;;;48.55;16.90;;;3.90;99.90;;;;;;5012982;28;20053;-72
2022/03/11 03:44:24;;;;;;;;;;;3.90;99.90;;;;;;5013697;28;20042;-73
2022/03/11 03:46:50;;;;;;;47.30;14.85;;;3.80;99.90;;;;;;5013043;28;19988;-72
2022/03/11 03:49:16;;;;;;;43.05;13.93;;;3.80;99.90;;;;;;5011167;28;20115;-73
2022/03/11 03:51:42;;;;;;;50.40;16.17;;;3.70;99.90;;;;;;5011658;28;20057;-72
2022/03/11 03:54:11;;;;;;;34.92;12.48;;;3.80;99.90;;;;;;4995136;28;20041;-73
2022/03/11 03:56:42;;;;;;;42.85;15.27;;;3.70;99.90;;;;;;5013266;28;20046;-72
2022/03/11 03:59:09;;;;;;;47.30;15.85;;;3.70;99.90;;;;;;5012840;28;20042;-72
2022/03/11 04:01:36;;;;;;;40.70;12.85;;;3.80;99.90;;;;;;4995342;28;20213;-72
2022/03/11 04:04:04;;;;;;;43.85;14.57;;;3.70;99.90;;;;;;5012034;28;20050;-72
2022/03/11 04:06:33;;;;;;;38.60;14.13;;;3.80;99.90;;;;;;5013829;28;20358;-72
2022/03/11 04:09:00;;;;;;;48.70;15.15;;;3.70;99.90;;;;;;4995306;28;20050;-73
2022/03/11 04:11:28;;;;;;;46.15;15.02;;;3.70;99.90;;;;;;5012664;28;20477;-73
2022/03/11 04:13:55;;;;;;;42.05;15.05;;;3.60;99.90;;;;;;5012181;28;20042;-72
2022/03/11 04:16:21;;;;;;;51.47;15.98;;;3.70;99.90;;;;;;5012982;28;20052;-73
2022/03/11 04:18:48;;;;;;;44.20;16.52;;;3.70;99.90;;;;;;5013096;28;20081;-71
2022/03/11 04:21:14;;;;;;;;;;;3.60;99.90;;;;;;5013015;28;20100;-71
2022/03/11 04:23:41;;;;;;;50.35;16.58;;;3.50;99.90;;;;;;5012891;28;19921;-71
2022/03/11 04:26:07;;;;;;;47.97;16.67;;;3.70;99.90;;;;;;5012850;28;20099;-76
2022/03/11 04:28:33;;;;;;;48.30;16.90;;;3.70;99.90;;;;;;5011646;28;20376;-74
2022/03/11 04:31:07;;;;;;;42.92;15.90;;;3.60;99.90;;;;;;4996727;28;20288;-78
2022/03/11 04:33:34;;;;;;;51.63;16.95;;;3.50;99.90;;;;;;4994673;28;20145;-72
2022/03/11 04:36:00;;;;;;;51.17;15.55;;;3.40;99.90;;;;;;5011589;28;20049;-72
2022/03/11 04:38:26;;;;;;;48.78;16.10;;;3.40;99.90;;;;;;5013366;28;20045;-71
2022/03/11 04:40:52;;;;;;;47.60;17.20;;;3.40;99.90;;;;;;5011670;28;20528;-71
2022/03/11 04:43:19;;;;;;;52.55;17.15;;;3.40;99.90;;;;;;4995444;28;20115;-71
2022/03/11 04:45:44;;;;;;;53.88;18.27;;;3.40;99.90;;;;;;4995304;28;20393;-73
2022/03/11 04:48:12;;;;;;;43.33;13.88;;;3.30;99.90;;;;;;5011166;28;20033;-72
2022/03/11 04:50:38;;;;;;;47.92;15.23;;;3.30;99.90;;;;;;5011358;28;20038;-71
2022/03/11 04:53:04;;;;;;;53.27;19.17;;;3.30;99.90;;;;;;4994951;28;20161;-71
2022/03/11 04:55:30;;;;;;;51.80;17.15;;;3.30;99.90;;;;;;5011221;28;20125;-72
2022/03/11 04:57:56;;;;;;;48.08;16.52;;;3.20;99.90;;;;;;5010823;28;20038;-74
2022/03/11 05:00:22;;;;;;;63.88;17.77;;;3.20;99.90;;;;;;5010679;28;20037;-73
2022/03/11 05:02:48;;;;;;;59.35;18.27;;;3.20;99.90;;;;;;5014578;28;20362;-72
2022/03/11 05:05:15;;;;;;;51.35;17.00;;;3.20;99.90;;;;;;5015979;28;20046;-73
2022/03/11 05:07:41;;;;;;;54.30;17.83;;;3.20;99.90;;;;;;5014899;28;20129;-72
2022/03/11 05:10:09;;;;;;;49.15;14.65;;;3.20;99.90;;;;;;4998444;28;20041;-73
2022/03/11 05:12:36;;;;;;;52.58;18.88;;;3.20;99.90;;;;;;5015922;28;20045;-72
2022/03/11 05:15:02;;;;;;;51.40;18.07;;;3.10;99.90;;;;;;4998678;28;20073;-71
2022/03/11 05:17:28;;;;;;;57.05;18.33;;;3.10;99.90;;;;;;5014654;28;20301;-72
2022/03/11 05:19:54;;;;;;;48.55;16.05;;;3.10;99.90;;;;;;5015771;28;20045;-73
2022/03/11 05:22:20;;;;;;;55.15;17.40;;;3.00;99.90;;;;;;5015501;28;20054;-72
2022/03/11 05:24:46;;;;;;;58.40;19.23;;;3.10;99.90;;;;;;5015597;28;20048;-75
2022/03/11 05:27:12;;;;;;;60.05;19.30;;;3.00;99.90;;;;;;5015741;28;20473;-72
2022/03/11 05:29:39;;;;;;;56.83;18.63;;;3.10;99.90;;;;;;4997845;28;20467;-73
2022/03/11 05:32:06;;;;;;;65.53;19.73;;;3.00;99.90;;;;;;5014576;28;20453;-71
2022/03/11 05:34:32;;;;;;;61.13;19.13;;;3.00;99.90;;;;;;4998189;28;20061;-71
2022/03/11 05:36:58;;;;;;;55.50;16.67;;;2.90;99.90;;;;;;4982185;28;20674;-72
2022/03/11 05:39:24;;;;;;;54.78;17.92;;;3.00;99.90;;;;;;5013951;28;20124;-73
2022/03/11 05:41:49;;;;;;;57.88;18.75;;;3.00;99.90;;;;;;4981278;28;20130;-71
2022/03/11 05:44:22;;;;;;;66.53;19.98;;;3.00;99.90;;;;;;4997647;28;20044;-72
2022/03/11 05:46:48;;;;;;;61.40;20.40;;;2.90;99.90;;;;;;5015487;28;20136;-72
2022/03/11 05:49:14;;;;;;;57.28;18.45;;;2.90;99.90;;;;;;4997825;28;20145;-70
2022/03/11 05:51:40;;;;;;;61.58;20.83;;;2.80;99.90;;;;;;5015330;28;20049;-71
2022/03/11 05:54:06;;;;;;;54.05;16.33;;;2.80;99.90;;;;;;4981408;28;20103;-73
2022/03/11 05:56:34;;;;;;;57.63;18.95;;;2.80;99.90;;;;;;4982543;28;20046;-70
2022/03/11 05:59:00;;;;;;;59.50;19.73;;;2.80;99.90;;;;;;4999621;28;20045;-72
2022/03/11 06:01:26;;;;;;;63.97;20.73;;;2.70;99.90;;;;;;5014791;28;20068;-70
2022/03/11 06:03:52;;;;;;;62.65;18.73;;;2.70;99.90;;;;;;5014404;28;20046;-73
2022/03/11 06:06:18;;;;;;;66.35;22.25;;;2.70;99.90;;;;;;4998014;28;20096;-73
2022/03/11 06:08:44;;;;;;;68.43;23.42;;;2.70;99.90;;;;;;5015989;28;20047;-72
2022/03/11 06:11:10;;;;;;;70.40;22.17;;;2.60;99.90;;;;;;5014507;28;20050;-74
2022/03/11 06:13:37;;;;;;;59.25;20.42;;;2.50;99.90;;;;;;5014494;28;20397;-72
2022/03/11 06:16:03;;;;;;;75.82;23.52;;;2.60;99.90;;;;;;5016510;28;20042;-74
2022/03/11 06:18:30;;;;;;;72.85;21.75;;;2.50;99.90;;;;;;4998392;28;20038;-72
2022/03/11 06:20:56;;;;;;;62.97;19.95;;;2.50;99.90;;;;;;5017321;28;20061;-72
2022/03/11 06:23:23;;;;;;;68.73;21.47;;;2.60;99.90;;;;;;5015381;28;20132;-72
2022/03/11 06:25:49;;;;;;;69.55;19.75;;;2.60;99.90;;;;;;5015185;28;20073;-73
2022/03/11 06:28:14;;;;;;;64.80;21.42;;;2.50;99.90;;;;;;5017422;28;20042;-72
2022/03/11 06:30:40;;;;;;;74.25;22.02;;;2.70;99.90;;;;;;5021545;28;20042;-72
2022/03/11 06:33:06;;;;;;;68.72;20.90;;;2.60;99.90;;;;;;5019817;28;20065;-71
2022/03/11 06:35:33;;;;;;;47.63;15.30;;;2.70;99.90;;;;;;5018438;28;20046;-73
2022/03/11 06:37:59;;;;;;;50.53;14.73;;;2.70;99.90;;;;;;5020152;28;20046;-73
2022/03/11 06:40:24;;;;;;;63.15;20.85;;;2.80;99.90;;;;;;4968067;28;20429;-71
2022/03/11 06:42:51;;;;;;;73.25;23.65;;;2.80;99.90;;;;;;4999611;28;20129;-72
2022/03/11 06:45:18;;;;;;;65.03;22.07;;;2.80;99.90;;;;;;5017496;28;20042;-73
2022/03/11 06:47:46;;;;;;;69.80;22.48;;;2.80;99.90;;;;;;5018260;28;20137;-72
2022/03/11 06:50:12;;;;;;;66.10;20.60;;;2.80;99.90;;;;;;5018225;28;20080;-72
2022/03/11 06:52:38;;;;;;;59.95;19.23;;;2.90;99.90;;;;;;5015752;28;20053;-73
2022/03/11 06:55:05;;;;;;;57.88;15.65;;;3.00;99.90;;;;;;4997637;28;20112;-71
2022/03/11 06:57:31;;;;;;;61.00;18.83;;;3.30;99.90;;;;;;4998406;28;20046;-71
2022/03/11 06:59:57;;;;;;;48.93;15.73;;;3.30;99.90;;;;;;5016255;28;20042;-72
2022/03/11 07:02:23;;;;;;;65.47;20.38;;;3.30;99.90;;;;;;5015398;28;20046;-72
2022/03/11 07:04:49;;;;;;;50.70;16.30;;;3.50;99.90;;;;;;5014383;28;20104;-72
2022/03/11 07:07:15;;;;;;;54.38;17.45;;;3.40;99.90;;;;;;5015284;28;20048;-72
2022/03/11 07:09:41;;;;;;;67.25;21.38;;;3.50;99.90;;;;;;5013179;28;20675;-72
2022/03/11 07:12:09;;;;;;;67.47;19.35;;;3.60;99.90;;;;;;5013694;28;20084;-73
2022/03/11 07:14:36;;;;;;;53.17;16.15;;;3.60;99.90;;;;;;4979478;28;20502;-72
2022/03/11 07:17:03;;;;;;;66.97;21.63;;;3.70;99.90;;;;;;5012220;28;20088;-72
2022/03/11 07:19:29;;;;;;;71.57;21.98;;;3.70;99.90;;;;;;5012313;28;20054;-74
2022/03/11 07:22:03;;;;;;;67.20;22.02;;;3.70;99.90;;;;;;5012204;28;20050;-73
2022/03/11 07:24:29;;;;;;;62.55;18.58;;;3.70;99.90;;;;;;4995431;28;20046;-72
2022/03/11 07:26:55;;;;;;;62.10;20.70;;;3.90;99.90;;;;;;5013902;28;20046;-72
2022/03/11 07:29:21;;;;;;;62.47;17.63;;;3.90;99.90;;;;;;5012636;28;20046;-72
2022/03/11 07:31:47;;;;;;;52.20;19.23;;;4.10;99.90;;;;;;4995723;28;20056;-71
2022/03/11 07:34:13;;;;;;;67.22;20.15;;;4.00;99.90;;;;;;5011829;28;20077;-71
2022/03/11 07:36:39;;;;;;;64.00;21.30;;;4.10;99.90;;;;;;5013333;28;20041;-72
2022/03/11 07:39:06;;;;;;;69.15;20.45;;;4.10;99.90;;;;;;4979704;28;20042;-72
2022/03/11 07:41:32;;;;;;;63.88;18.58;;;4.20;99.90;;;;;;5013027;28;20050;-72
2022/03/11 07:43:59;;;;;;;66.57;21.33;;;4.30;99.90;;;;;;4996006;28;20355;-72
2022/03/11 07:46:27;;;;;;;63.13;19.08;;;4.30;99.90;;;;;;5011985;28;20046;-71
2022/03/11 07:48:53;;;;;;;56.45;18.98;;;4.40;99.90;;;;;;5012748;28;20155;-73
2022/03/11 07:51:20;;;;;;;65.80;19.90;;;4.40;99.90;;;;;;5011835;28;20408;-72
2022/03/11 07:53:46;;;;;;;64.85;19.70;;;4.50;99.90;;;;;;5011712;28;20052;-72
2022/03/11 07:56:14;;;;;;;58.90;18.75;;;4.50;99.90;;;;;;4995413;28;20060;-72
2022/03/11 07:58:41;;;;;;;54.00;16.17;;;4.60;99.90;;;;;;4995407;28;20050;-72
2022/03/11 08:01:11;;;;;;;58.92;18.50;;;4.80;99.90;;;;;;4995300;28;20056;-72
2022/03/11 08:03:38;;;;;;;56.05;20.85;;;4.80;99.90;;;;;;5012785;28;20462;-72
2022/03/11 08:06:06;;;;;;;65.47;20.33;;;4.90;99.90;;;;;;5013506;28;20047;-78
2022/03/11 08:08:32;;;;;;;54.10;17.02;;;4.90;99.90;;;;;;5013044;28;20048;-72
2022/03/11 08:10:58;;;;;;;53.78;15.98;;;5.00;99.90;;;;;;5013279;28;20041;-71
2022/03/11 08:13:24;;;;;;;60.55;18.40;;;5.10;99.90;;;;;;5011397;28;20129;-71
2022/03/11 08:15:50;;;;;;;54.70;18.15;;;5.10;99.90;;;;;;5011544;28;20050;-74
2022/03/11 08:18:16;;;;;;;56.08;16.65;;;5.20;99.90;;;;;;4979023;28;20129;-72
2022/03/11 08:20:42;;;;;;;65.05;21.08;;;5.30;99.90;;;;;;5011675;28;20057;-72
2022/03/11 08:23:08;;;;;;;65.32;20.33;;;5.40;99.90;;;;;;5011465;28;20054;-71
2022/03/11 08:25:35;;;;;;;64.80;22.25;;;5.30;99.90;;;;;;5012678;28;20081;-72
2022/03/11 08:28:02;;;;;;;49.70;15.60;;;5.30;99.90;;;;;;5012935;28;20426;-71
2022/03/11 08:30:29;;;;;;;51.40;17.75;;;5.40;99.90;;;;;;4995968;28;20085;-71
2022/03/11 08:32:55;;;;;;;72.53;22.07;;;5.60;99.90;;;;;;4978537;28;20061;-71
2022/03/11 08:35:21;;;;;;;53.87;16.53;;;5.60;99.90;;;;;;5014045;28;20053;-72
2022/03/11 08:37:47;;;;;;;60.25;19.98;;;5.60;99.90;;;;;;5015798;28;20390;-72
2022/03/11 08:40:14;;;;;;;48.20;16.00;;;5.80;99.90;;;;;;4998960;28;20438;-72
2022/03/11 08:42:41;;;;;;;38.80;15.20;;;5.90;99.90;;;;;;5016209;28;20053;-73
2022/03/11 08:45:10;;;;;;;54.15;17.35;;;5.80;99.90;;;;;;5015509;28;20136;-73
2022/03/11 08:47:36;;;;;;;72.85;22.63;;;5.90;99.90;;;;;;5016492;28;20504;-73
2022/03/11 08:50:03;;;;;;;53.85;17.08;;;6.00;99.90;;;;;;5015988;28;20049;-71
2022/03/11 08:52:30;;;;;;;65.90;20.73;;;6.10;99.90;;;;;;5016464;28;20142;-73
2022/03/11 08:54:57;;;;;;;71.78;22.50;;;6.20;99.90;;;;;;5016406;28;20087;-72
2022/03/11 08:57:23;;;;;;;46.35;15.93;;;6.30;99.90;;;;;;5016035;28;20485;-71
2022/03/11 08:59:49;;;;;;;56.22;18.02;;;6.20;99.90;;;;;;5017235;28;20149;-74
2022/03/11 09:02:15;;;;;;;65.18;19.85;;;6.30;99.90;;;;;;5016257;28;20151;-73
2022/03/11 09:04:42;;;;;;;50.33;18.02;;;6.40;99.90;;;;;;5015906;28;20049;-73
2022/03/11 09:07:08;;;;;;;110.32;35.25;;;6.40;99.90;;;;;;5016258;28;20486;-72
2022/03/11 09:09:36;;;;;;;55.63;17.00;;;6.50;99.90;;;;;;5017304;28;20053;-72
2022/03/11 09:12:03;;;;;;;59.92;17.60;;;6.70;99.90;;;;;;4998733;28;20065;-72
2022/03/11 09:14:30;;;;;;;71.20;22.90;;;6.70;99.90;;;;;;5015036;28;20108;-71
2022/03/11 09:16:56;;;;;;;67.80;23.55;;;6.70;99.90;;;;;;4998657;28;20046;-72
2022/03/11 09:19:22;;;;;;;50.92;16.05;;;6.70;99.90;;;;;;5015650;28;20098;-73
2022/03/11 09:21:48;;;;;;;60.92;18.60;;;6.80;99.90;;;;;;4998575;28;20443;-73
2022/03/11 09:24:20;;;;;;;45.47;15.55;;;6.80;99.90;;;;;;5016140;28;20474;-71
2022/03/11 09:26:47;;;;;;;61.33;20.65;;;7.00;99.50;;;;;;5014340;28;20057;-71
2022/03/11 09:29:15;;;;;;;49.38;13.98;;;7.10;98.80;;;;;;5014586;28;20054;-73
2022/03/11 09:31:41;;;;;;;53.30;15.75;;;7.10;97.80;;;;;;4998003;28;20077;-70
2022/03/11 09:34:07;;;;;;;66.50;22.23;;;7.20;97.00;;;;;;5014218;28;20385;-72
2022/03/11 09:36:33;;;;;;;53.60;20.33;;;7.20;97.90;;;;;;5015429;28;20449;-71
2022/03/11 09:38:58;;;;;;;46.60;14.80;;;7.30;97.20;;;;;;5014469;28;20078;-72
2022/03/11 09:41:27;;;;;;;58.80;18.13;;;7.40;97.00;;;;;;5014759;28;20433;-73
2022/03/11 09:43:55;;;;;;;54.15;18.17;;;7.40;97.40;;;;;;5015574;28;20049;-72
2022/03/11 09:46:21;;;;;;;59.38;18.17;;;7.60;96.60;;;;;;4997598;28;20045;-72
2022/03/11 09:48:47;;;;;;;51.22;18.33;;;7.60;95.40;;;;;;4981656;28;20045;-71
2022/03/11 09:51:15;;;;;;;58.72;17.80;;;7.70;94.00;;;;;;5015180;28;20045;-72
2022/03/11 09:53:42;;;;;;;52.13;16.77;;;7.90;94.20;;;;;;5015691;28;20490;-77
2022/03/11 09:56:08;;;;;;;49.00;16.50;;;7.90;93.30;;;;;;5015157;28;20041;-75
2022/03/11 09:58:34;;;;;;;48.10;17.25;;;8.00;92.50;;;;;;5015034;28;20046;-72
2022/03/11 10:01:05;;;;;;;41.80;15.15;;;8.20;91.70;;;;;;5013905;28;20045;-71
2022/03/11 10:03:31;;;;;;;47.10;15.50;;;8.20;91.70;;;;;;5013973;28;20354;-72
2022/03/11 10:05:57;;;;;;;53.72;18.35;;;8.40;89.20;;;;;;5015252;28;20050;-71
2022/03/11 10:08:31;;;;;;;42.90;13.45;;;8.40;88.40;;;;;;4997286;28;20453;-71
2022/03/11 10:11:20;;;;;;;50.80;16.50;;;8.50;87.10;;;;;;5013766;28;20093;-72
2022/03/11 10:13:46;;;;;;;46.08;15.55;;;8.50;85.50;;;;;;5014486;28;20152;-72
2022/03/11 10:16:26;;;;;;;44.72;16.50;;;8.60;86.40;;;;;;5015055;28;20046;-71
2022/03/11 10:18:59;;;;;;;46.45;16.52;;;8.70;83.90;;;;;;4997992;28;20084;-75
2022/03/11 10:21:39;;;;;;;47.42;16.08;;;8.70;82.30;;;;;;4997323;28;20058;-72
2022/03/11 10:24:15;;;;;;;45.40;13.38;;;8.80;80.90;;;;;;4997411;28;20137;-71
2022/03/11 10:26:45;;;;;;;38.30;13.87;;;8.80;80.80;;;;;;5013866;28;20054;-71
2022/03/11 10:29:16;;;;;;;52.95;17.58;;;8.90;81.70;;;;;;5013635;28;20045;-72
2022/03/11 10:31:45;;;;;;;49.67;19.30;;;8.90;83.20;;;;;;5014669;28;20478;-72
2022/03/11 10:34:15;;;;;;;48.08;16.70;;;8.90;83.80;;;;;;5014407;28;20066;-72
2022/03/11 10:36:58;;;;;;;47.10;13.90;;;9.00;82.90;;;;;;5015195;28;20058;-73
2022/03/11 10:39:29;;;;;;;42.92;13.90;;;9.10;81.70;;;;;;5014549;28;20050;-71
2022/03/11 10:42:15;;;;;;;47.15;17.70;;;9.20;80.10;;;;;;5014051;28;20053;-72
2022/03/11 10:45:06;;;;;;;44.10;17.30;;;9.20;79.40;;;;;;5014962;28;20057;-72
2022/03/11 10:47:39;;;;;;;38.08;13.88;;;9.30;78.40;;;;;;5010943;28;20811;-73
2022/03/11 10:50:07;;;;;;;55.95;19.80;;;9.30;79.80;;;;;;4997815;28;20050;-72
2022/03/11 10:52:42;;;;;;;;;;;9.30;79.40;;;;;;5014714;28;20049;-72
2022/03/11 10:55:28;;;;;;;56.23;18.07;;;9.30;78.90;;;;;;4996949;28;20269;-72
2022/03/11 10:57:59;;;;;;;46.63;14.07;;;9.40;77.50;;;;;;5013904;28;20138;-72
2022/03/11 11:00:37;;;;;;;41.83;14.55;;;9.50;77.30;;;;;;5013539;28;20187;-71
2022/03/11 11:03:08;;;;;;;45.80;15.65;;;9.50;77.20;;;;;;5013985;28;20088;-72
2022/03/11 11:05:37;;;;;;;46.10;16.92;;;9.60;79.40;;;;;;5012902;28;20552;-73
2022/03/11 11:08:05;;;;;;;47.47;17.45;;;9.60;78.80;;;;;;5014255;28;20046;-72
2022/03/11 11:10:34;;;;;;;51.17;17.45;;;9.70;77.00;;;;;;5012831;28;20045;-74
2022/03/11 11:13:00;;;;;;;52.70;18.02;;;9.70;75.80;;;;;;4980946;28;20143;-73
2022/03/11 11:15:26;;;;;;;47.22;17.67;;;9.70;76.00;;;;;;5014165;28;20429;-71
2022/03/11 11:17:53;;;;;;;45.13;16.35;;;9.70;75.70;;;;;;5013568;28;20402;-74
2022/03/11 11:20:20;;;;;;;52.72;20.58;;;9.80;76.30;;;;;;5012415;28;20452;-72
2022/03/11 11:22:48;;;;;;;50.65;18.55;;;9.80;76.00;;;;;;5013579;28;20201;-72
2022/03/11 11:25:16;;;;;;;44.83;14.95;;;9.80;76.50;;;;;;5012663;28;20100;-71
2022/03/11 11:27:43;;;;;;;39.35;13.68;;;10.00;72.90;;;;;;5013280;28;20446;-71
2022/03/11 11:30:09;;;;;;;50.72;18.02;;;10.00;73.60;;;;;;5012165;28;20050;-73
2022/03/11 11:32:37;;;;;;;41.30;15.40;;;10.00;72.90;;;;;;5012752;28;20200;-73
2022/03/11 11:35:32;;;;;;;41.67;14.77;;;10.00;72.80;;;;;;5011931;28;20042;-72
2022/03/11 11:38:00;;;;;;;41.85;16.70;;;10.10;71.50;;;;;;4995657;28;20103;-72
2022/03/11 11:40:33;;;;;;;53.05;19.25;;;10.10;71.50;;;;;;5013378;28;20370;-72
2022/03/11 11:43:14;;;;;;;51.65;17.38;;;10.10;72.80;;;;;;5011730;28;20049;-73
2022/03/11 11:45:51;;;;;;;41.88;14.38;;;10.20;71.80;;;;;;5012057;28;20053;-74
2022/03/11 11:48:35;;;;;;;46.00;12.80;;;10.20;70.80;;;;;;5013261;28;20084;-72
2022/03/11 11:51:06;;;;;;;55.95;19.13;;;10.30;70.80;;;;;;5011765;28;20351;-72
2022/03/11 11:53:41;;;;;;;49.30;16.20;;;10.30;71.70;;;;;;4979841;28;20054;-71
2022/03/11 11:56:34;;;;;;;43.50;14.60;;;10.30;71.00;;;;;;5011476;28;20486;-76
2022/03/11 11:59:02;;;;;;;45.17;16.05;;;10.40;70.60;;;;;;5009936;28;20089;-71
2022/03/11 12:01:40;;;;;;;48.35;17.48;;;10.40;69.90;;;;;;5012862;28;20528;-72
2022/03/11 12:04:29;;;;;;;50.35;16.48;;;10.50;68.80;;;;;;5013096;28;20050;-70
2022/03/11 12:07:05;;;;;;;55.00;18.52;;;10.50;67.90;;;;;;5013456;28;20046;-71
2022/03/11 12:12:35;;;;;;;45.85;15.10;;;10.60;69.70;;;;;;5002894;28;20116;-72
2022/03/11 12:15:01;;;;;;;58.03;20.85;;;10.70;69.20;;;;;;5012969;28;20049;-72
2022/03/11 12:17:55;;;;;;;50.75;17.10;;;10.80;69.10;;;;;;5012737;28;20159;-71
2022/03/11 12:20:35;;;;;;;42.05;14.68;;;10.70;70.50;;;;;;5013284;28;20478;-72
2022/03/11 12:23:03;;;;;;;45.05;17.10;;;10.90;67.20;;;;;;4995429;28;20049;-72
2022/03/11 12:25:32;;;;;;;46.58;16.80;;;11.00;67.00;;;;;;5012503;28;20096;-72
2022/03/11 12:28:16;;;;;;;44.88;16.45;;;11.00;68.50;;;;;;5012943;28;20065;-71
2022/03/11 12:30:48;;;;;;;43.80;14.52;;;11.00;67.40;;;;;;4995745;28;20054;-71
2022/03/11 12:33:16;;;;;;;47.13;17.10;;;11.20;66.10;;;;;;4995394;28;20175;-72
2022/03/11 12:35:44;;;;;;;41.33;15.43;;;11.20;64.60;;;;;;5013496;28;20058;-72
2022/03/11 12:38:15;;;;;;;47.40;16.95;;;11.20;65.50;;;;;;4996949;28;20069;-72
2022/03/11 12:40:42;;;;;;;45.45;14.35;;;11.20;66.50;;;;;;5017460;28;20109;-73
2022/03/11 12:43:11;;;;;;;40.65;15.18;;;11.30;67.30;;;;;;5022085;28;20466;-73
2022/03/11 12:45:43;;;;;;;41.60;14.73;;;11.40;65.10;;;;;;5020941;28;20077;-72